Time;durP1;ratioP1;P1;durP2;ratioP2;P2;SDS_P1;SDS_P2;PMS_P1;PMS_P2;Temp;Humidity;BMP_temperature;BMP_pressure;BME280_temperature;BME280_humidity;BME280_pressure;Samples;Min_cycle;Max_cycle;Signal;HPM_P1;HPM_P2
2022/02/07 00:00:40;;;;;;;;;;;-0.30;99.90;;;;;;4175365;28;19912;-50
2022/02/07 00:05:00;;;;;;;;;;;-0.20;99.90;;;;;;4174555;28;20377;-51
2022/02/07 00:07:02;;;;;;;;;;;-0.20;99.90;;;;;;4176356;28;20361;-51
2022/02/07 00:09:03;;;;;;;;;;;-0.10;99.90;;;;;;4175061;28;20312;-51
2022/02/07 00:11:04;;;;;;;;;;;-0.10;99.90;;;;;;4176336;28;20234;-48
2022/02/07 00:13:05;;;;;;;;;;;-0.10;99.90;;;;;;4174354;28;19967;-51
2022/02/07 00:15:08;;;;;;;;;;;-0.10;99.90;;;;;;4186380;28;19921;-52
2022/02/07 00:17:09;;;;;;;;;;;-0.20;99.90;;;;;;4191571;28;20437;-53
2022/02/07 00:19:20;;;;;;;;;;;-0.20;99.90;;;;;;4191718;28;19913;-52
2022/02/07 00:21:21;;;;;;;;;;;-0.10;99.90;;;;;;4190894;28;19913;-51
2022/02/07 00:23:22;;;;;;;;;;;-0.10;99.90;;;;;;4182957;28;20693;-53
2022/02/07 00:25:23;;;;;;;;;;;-0.10;99.90;;;;;;4191506;28;19923;-49
2022/02/07 00:27:24;;;;;;;;;;;-0.10;99.90;;;;;;4191551;28;19909;-46
2022/02/07 00:29:25;;;;;;;;;;;-0.20;99.90;;;;;;4192032;28;19912;-51
2022/02/07 00:31:25;;;;;;;;;;;-0.10;99.90;;;;;;4190683;28;19922;-50
2022/02/07 00:33:26;;;;;;;;;;;-0.20;99.90;;;;;;4192175;28;20340;-55
2022/02/07 00:35:27;;;;;;;;;;;-0.20;99.90;;;;;;4190291;28;19924;-51
2022/02/07 00:37:31;;;;;;;;;;;-0.10;99.90;;;;;;4190076;28;19967;-55
2022/02/07 00:39:41;;;;;;;;;;;0.00;99.90;;;;;;4191173;28;20335;-55
2022/02/07 00:41:48;;;;;;;;;;;0.00;99.90;;;;;;4191991;28;20416;-50
2022/02/07 00:43:54;;;;;;;;;;;0.00;99.90;;;;;;4190862;28;19916;-52
2022/02/07 00:46:05;;;;;;;;;;;-0.10;99.90;;;;;;4192372;28;19913;-54
2022/02/07 00:48:10;;;;;;;;;;;-0.10;99.90;;;;;;4189627;28;19954;-50
2022/02/07 00:50:11;;;;;;;;;;;-0.10;99.90;;;;;;4174596;28;19921;-51
2022/02/07 00:52:11;;;;;;;;;;;-0.10;99.90;;;;;;4174147;28;20436;-52
2022/02/07 00:54:12;;;;;;;;;;;-0.10;99.90;;;;;;4175616;28;19913;-55
2022/02/07 00:56:13;;;;;;;;;;;-0.20;99.90;;;;;;4173656;28;19939;-55
2022/02/07 00:58:14;;;;;;;;;;;-0.20;99.90;;;;;;4175221;28;19916;-52
2022/02/07 01:00:16;;;;;;;;;;;-0.30;99.90;;;;;;4174645;28;19912;-49
2022/02/07 01:02:17;;;;;;;;;;;-0.30;99.90;;;;;;4175939;28;19921;-53
2022/02/07 01:04:18;;;;;;;;;;;-0.30;99.90;;;;;;4174314;28;19916;-54
2022/02/07 01:06:20;;;;;;;;;;;-0.40;99.90;;;;;;4174041;28;19962;-49
2022/02/07 01:08:29;;;;;;;;;;;-0.50;99.90;;;;;;4175528;28;19955;-53
2022/02/07 01:11:00;;;;;;;;;;;-0.50;99.90;;;;;;4173171;28;20325;-52
2022/02/07 01:13:07;;;;;;;;;;;-0.50;99.90;;;;;;4174220;28;19912;-52
2022/02/07 01:47:33;;;;;;;;;;;0.40;99.90;;;;;;4176149;28;20410;-51
2022/02/07 01:54:07;;;;;;;;;;;1.10;99.90;;;;;;4173751;28;19958;-53
2022/02/07 01:56:09;;;;;;;;;;;1.40;99.90;;;;;;4179959;28;20335;-48
2022/02/07 01:58:11;;;;;;;;;;;1.60;99.90;;;;;;4190400;28;19958;-51
2022/02/07 02:00:13;;;;;;;;;;;2.10;99.90;;;;;;4191424;28;19916;-53
2022/02/07 02:02:14;;;;;;;;;;;2.30;99.90;;;;;;4189747;28;19962;-50
2022/02/07 02:04:15;;;;;;;;;;;2.40;99.90;;;;;;4190766;28;20700;-51
2022/02/07 02:06:16;;;;;;;;;;;2.40;99.90;;;;;;4189763;28;20256;-53
2022/02/07 02:08:17;;;;;;;;;;;2.50;99.90;;;;;;4191416;28;19912;-46
2022/02/07 02:10:18;;;;;;;;;;;2.50;99.90;;;;;;4190284;28;19974;-53
2022/02/07 02:12:20;;;;;;;;;;;2.50;99.90;;;;;;4191220;28;20007;-55
2022/02/07 02:14:54;;;;;;;;;;;2.60;99.90;;;;;;4187534;28;19922;-52
2022/02/07 02:17:10;;;;;;;;;;;3.00;99.90;;;;;;4189327;28;19986;-55
2022/02/07 02:38:01;;;;;;;;;;;3.40;99.90;;;;;;4191619;28;19958;-50
2022/02/07 02:47:01;;;;;;;;;;;3.10;99.90;;;;;;4175208;28;19983;-51
2022/02/07 02:49:05;;;;;;;;;;;3.10;99.90;;;;;;4173085;28;19925;-47
2022/02/07 02:51:08;;;;;;;;;;;3.00;99.90;;;;;;4173581;28;19967;-50
2022/02/07 02:53:13;;;;;;;;;;;2.90;99.90;;;;;;4172424;28;19970;-52
2022/02/07 02:55:14;;;;;;;;;;;2.80;99.90;;;;;;4182466;28;19920;-46
2022/02/07 02:57:14;;;;;;;;;;;2.70;99.90;;;;;;4189124;28;19917;-52
2022/02/07 02:59:15;;;;;;;;;;;2.60;99.90;;;;;;4190112;28;20556;-49
2022/02/07 03:01:16;;;;;;;;;;;2.40;99.90;;;;;;4189048;28;19994;-49
2022/02/07 03:03:17;;;;;;;;;;;2.30;99.90;;;;;;4189505;28;19931;-52
2022/02/07 03:05:19;;;;;;;;;;;2.20;99.90;;;;;;4190536;28;19938;-51
2022/02/07 03:07:22;;;;;;;;;;;2.20;99.90;;;;;;4188928;28;19912;-54
2022/02/07 03:09:23;;;;;;;;;;;2.20;99.90;;;;;;4186950;28;19920;-52
2022/02/07 03:11:26;;;;;;;;;;;2.10;99.90;;;;;;4175122;28;19979;-50
2022/02/07 03:17:48;;;;;;;;;;;1.90;99.90;;;;;;4176781;28;20331;-55
2022/02/07 03:19:48;;;;;;;;;;;1.90;99.90;;;;;;4175793;28;19912;-54
2022/02/07 03:21:49;;;;;;;;;;;2.00;99.90;;;;;;4176618;28;19913;-51
2022/02/07 03:23:50;;;;;;;;;;;1.90;99.90;;;;;;4175411;28;19992;-54
2022/02/07 03:25:52;;;;;;;;;;;1.90;99.90;;;;;;4186907;28;19917;-56
2022/02/07 03:27:53;;;;;;;;;;;1.80;99.90;;;;;;4192024;28;19912;-51
2022/02/07 03:29:54;;;;;;;;;;;1.70;99.90;;;;;;4192515;28;19916;-56
2022/02/07 03:31:55;;;;;;;;;;;1.70;99.90;;;;;;4187856;28;19913;-55
2022/02/07 03:33:56;;;;;;;;;;;1.60;99.90;;;;;;4176020;28;19998;-53
2022/02/07 03:35:57;;;;;;;;;;;1.50;99.90;;;;;;4174969;28;19947;-53
2022/02/07 03:37:58;;;;;;;;;;;1.50;99.90;;;;;;4181417;28;19982;-53
2022/02/07 03:39:59;;;;;;;;;;;1.50;99.90;;;;;;4192585;28;20365;-53
2022/02/07 03:42:00;;;;;;;;;;;1.40;99.90;;;;;;4191275;28;19913;-52
2022/02/07 03:44:01;;;;;;;;;;;1.20;99.90;;;;;;4192679;28;19915;-53
2022/02/07 03:46:02;;;;;;;;;;;1.10;99.90;;;;;;4192075;28;20339;-51
2022/02/07 03:48:03;;;;;;;;;;;1.00;99.90;;;;;;4192252;28;19913;-51
2022/02/07 03:50:05;;;;;;;;;;;0.90;99.90;;;;;;4176688;28;20387;-53
2022/02/07 03:52:08;;;;;;;;;;;0.90;99.90;;;;;;4176442;28;19966;-53
2022/02/07 03:54:09;;;;;;;;;;;0.80;99.90;;;;;;4175270;28;19971;-53
2022/02/07 03:56:10;;;;;;;;;;;0.80;99.90;;;;;;4176299;28;20372;-53
2022/02/07 03:58:11;;;;;;;;;;;0.70;99.90;;;;;;4175575;28;19923;-50
2022/02/07 04:00:13;;;;;;;;;;;0.70;99.90;;;;;;4176599;28;20359;-53
2022/02/07 04:02:14;;;;;;;;;;;0.70;99.90;;;;;;4174109;28;20399;-49
2022/02/07 04:04:15;;;;;;;;;;;0.70;99.90;;;;;;4175507;28;20642;-51
2022/02/07 04:06:18;;;;;;;;;;;0.70;99.90;;;;;;4175412;28;19909;-54
2022/02/07 04:08:22;;;;;;;;;;;0.70;99.90;;;;;;4177105;28;19970;-48
2022/02/07 04:10:24;;;;;;;;;;;0.70;99.90;;;;;;4174890;28;19962;-50
2022/02/07 04:12:27;;;;;;;;;;;0.80;99.90;;;;;;4174686;28;19921;-52
2022/02/07 04:14:28;;;;;;;;;;;0.80;99.90;;;;;;4175344;28;19913;-52
2022/02/07 04:16:36;;;;;;;;;;;0.70;99.90;;;;;;4174724;28;19978;-53
2022/02/07 04:18:52;;;;;;;;;;;0.70;99.90;;;;;;4176114;28;19908;-51
2022/02/07 04:20:53;;;;;;;;;;;0.60;99.90;;;;;;4174468;28;19962;-54
2022/02/07 04:22:54;;;;;;;;;;;0.60;99.90;;;;;;4185747;28;19913;-52
2022/02/07 04:24:55;;;;;;;;;;;0.50;99.90;;;;;;4190640;28;19916;-50
2022/02/07 04:26:56;;;;;;;;;;;0.50;99.90;;;;;;4192022;28;19921;-55
2022/02/07 04:28:57;;;;;;;;;;;0.50;99.90;;;;;;4190735;28;19962;-53
2022/02/07 04:30:58;;;;;;;;;;;0.50;99.90;;;;;;4192476;28;19917;-49
2022/02/07 04:32:59;;;;;;;;;;;0.40;99.90;;;;;;4190949;28;19912;-58
2022/02/07 04:35:00;;;;;;;;;;;0.40;99.90;;;;;;4192112;28;19912;-52
2022/02/07 04:37:01;;;;;;;;;;;0.40;99.90;;;;;;4189756;28;19931;-55
2022/02/07 04:39:02;;;;;;;;;;;0.40;99.90;;;;;;4192231;28;20003;-51
2022/02/07 04:41:06;;;;;;;;;;;0.40;99.90;;;;;;4189905;28;19931;-53
2022/02/07 04:43:10;;;;;;;;;;;0.40;99.90;;;;;;4191239;28;19916;-52
2022/02/07 04:45:40;;;;;;;;;;;0.40;99.90;;;;;;4188731;28;19924;-51
2022/02/07 04:52:19;;;;;;;;;;;0.40;99.90;;;;;;4191378;28;19913;-53
2022/02/07 04:54:48;;;;;;;;;;;0.40;99.90;;;;;;4190221;28;19962;-49
2022/02/07 04:59:20;;;;;;;;;;;0.40;99.90;;;;;;4166659;28;20425;-53
2022/02/07 05:03:28;;;;;;;;;;;0.40;99.90;;;;;;4190578;28;20413;-50
2022/02/07 05:14:31;;;;;;;;;;;0.50;99.90;;;;;;4175267;28;19939;-53
2022/02/07 05:16:32;;;;;;;;;;;0.50;99.90;;;;;;4176196;28;19990;-52
2022/02/07 05:18:33;;;;;;;;;;;0.50;99.90;;;;;;4191149;28;19947;-56
2022/02/07 05:20:34;;;;;;;;;;;0.50;99.90;;;;;;4189331;28;20270;-52
2022/02/07 05:22:35;;;;;;;;;;;0.50;99.90;;;;;;4190722;28;20442;-49
2022/02/07 05:24:36;;;;;;;;;;;0.60;99.90;;;;;;4181133;28;19921;-49
2022/02/07 05:26:37;;;;;;;;;;;0.50;99.90;;;;;;4189856;28;19908;-53
2022/02/07 05:28:38;;;;;;;;;;;0.50;99.90;;;;;;4178278;28;19981;-47
2022/02/07 05:30:39;;;;;;;;;;;0.60;99.90;;;;;;4176488;28;19971;-51
2022/02/07 05:32:40;;;;;;;;;;;0.50;99.90;;;;;;4175546;28;19913;-53
2022/02/07 05:34:41;;;;;;;;;;;0.50;99.90;;;;;;4189788;28;19924;-54
2022/02/07 05:36:44;;;;;;;;;;;0.50;99.90;;;;;;4183948;28;20336;-52
2022/02/07 05:38:48;;;;;;;;;;;0.50;99.90;;;;;;4189266;28;20340;-50
2022/02/07 05:40:58;;;;;;;;;;;0.40;99.90;;;;;;4190974;28;19920;-54
2022/02/07 05:42:59;;;;;;;;;;;0.40;99.90;;;;;;4188502;28;19920;-58
2022/02/07 05:45:01;;;;;;;;;;;0.50;99.90;;;;;;4191056;28;20687;-55
2022/02/07 05:47:03;;;;;;;;;;;0.50;99.90;;;;;;4189684;28;19916;-50
2022/02/07 05:49:04;;;;;;;;;;;0.50;99.90;;;;;;4187421;28;20445;-50
2022/02/07 05:51:06;;;;;;;;;;;0.50;99.90;;;;;;4173439;28;19912;-53
2022/02/07 05:53:07;;;;;;;;;;;0.60;99.90;;;;;;4173877;28;19912;-52
2022/02/07 05:55:08;;;;;;;;;;;0.70;99.90;;;;;;4172640;28;20330;-56
2022/02/07 05:57:09;;;;;;;;;;;0.70;99.90;;;;;;4174120;28;20444;-53
2022/02/07 05:59:10;;;;;;;;;;;0.70;99.90;;;;;;4173161;28;19980;-56
2022/02/07 06:01:11;;;;;;;;;;;0.80;99.90;;;;;;4173830;28;19963;-49
2022/02/07 06:03:12;;;;;;;;;;;0.80;99.90;;;;;;4172288;28;20311;-55
2022/02/07 06:05:14;;;;;;;;;;;0.70;99.90;;;;;;4181658;28;19912;-49
2022/02/07 06:07:15;;;;;;;;;;;0.60;99.90;;;;;;4188788;28;19912;-52
2022/02/07 06:09:16;;;;;;;;;;;0.50;99.90;;;;;;4189473;28;19914;-50
2022/02/07 06:11:17;;;;;;;;;;;0.60;99.90;;;;;;4189459;28;19959;-50
2022/02/07 06:13:18;;;;;;;;;;;0.60;99.90;;;;;;4189255;28;20604;-51
2022/02/07 06:15:20;;;;;;;;;;;0.60;99.90;;;;;;4190358;28;19912;-55
2022/02/07 06:17:20;;;;;;;;;;;0.60;99.90;;;;;;4188888;28;20262;-55
2022/02/07 06:19:21;;;;;;;;;;;0.60;99.90;;;;;;4189773;28;19965;-51
2022/02/07 06:21:23;;;;;;;;;;;0.70;99.90;;;;;;4188400;28;19913;-51
2022/02/07 06:23:28;;;;;;;;;;;0.70;99.90;;;;;;4190537;28;19989;-52
2022/02/07 06:25:29;;;;;;;;;;;0.70;99.90;;;;;;4188050;28;19988;-51
2022/02/07 06:27:30;;;;;;;;;;;0.60;99.90;;;;;;4190367;28;19920;-59
2022/02/07 06:29:31;;;;;;;;;;;0.60;99.90;;;;;;4189372;28;20280;-53
2022/02/07 06:31:31;;;;;;;;;;;0.60;99.90;;;;;;4189726;28;19970;-53
2022/02/07 06:33:32;;;;;;;;;;;0.50;99.90;;;;;;4188829;28;19908;-55
2022/02/07 06:35:33;;;;;;;;;;;0.50;99.90;;;;;;4189799;28;19912;-52
2022/02/07 06:37:34;;;;;;;;;;;0.50;99.90;;;;;;4188615;28;19920;-50
2022/02/07 06:39:35;;;;;;;;;;;0.60;99.90;;;;;;4189794;28;19908;-54
2022/02/07 06:41:36;;;;;;;;;;;0.60;99.90;;;;;;4189732;28;19913;-51
2022/02/07 06:43:37;;;;;;;;;;;0.60;99.90;;;;;;4188306;28;19939;-51
2022/02/07 06:45:38;;;;;;;;;;;0.60;99.90;;;;;;4191584;28;19977;-47
2022/02/07 06:47:39;;;;;;;;;;;0.70;99.90;;;;;;4191602;28;19912;-52
2022/02/07 06:49:40;;;;;;;;;;;0.80;99.90;;;;;;4193068;28;20335;-47
2022/02/07 06:51:41;;;;;;;;;;;0.80;99.90;;;;;;4191856;28;19915;-46
2022/02/07 06:53:42;;;;;;;;;;;0.90;99.90;;;;;;4192978;28;20369;-55
2022/02/07 06:55:43;;;;;;;;;;;0.90;99.90;;;;;;4191657;28;19982;-53
2022/02/07 06:57:44;;;;;;;;;;;0.90;99.90;;;;;;4192207;28;19924;-51
2022/02/07 06:59:47;;;;;;;;;;;0.90;99.90;;;;;;4192006;28;19912;-50
2022/02/07 07:01:48;;;;;;;;;;;1.00;99.90;;;;;;4192704;28;19917;-52
2022/02/07 07:03:49;;;;;;;;;;;1.10;99.90;;;;;;4191840;28;20717;-49
2022/02/07 07:05:52;;;;;;;;;;;1.10;99.90;;;;;;4192186;28;19913;-62
2022/02/07 07:07:53;;;;;;;;;;;1.10;99.90;;;;;;4192257;28;19969;-54
2022/02/07 07:09:54;;;;;;;;;;;1.30;99.90;;;;;;4192559;28;19916;-59
2022/02/07 07:12:02;;;;;;;;;;;1.50;99.90;;;;;;4191940;28;19986;-63
2022/02/07 07:14:16;;;;;;;;;;;1.50;99.90;;;;;;4192414;28;19962;-53
2022/02/07 07:18:23;;;;;;;;;;;1.60;99.90;;;;;;4191930;28;20339;-50
2022/02/07 07:20:24;;;;;;;;;;;1.60;99.90;;;;;;4192724;28;19912;-53
2022/02/07 07:22:25;;;;;;;;;;;1.60;99.90;;;;;;4191578;28;20066;-59
2022/02/07 07:24:27;;;;;;;;;;;1.70;99.90;;;;;;4193153;28;19916;-55
2022/02/07 07:26:30;;;;;;;;;;;1.70;99.90;;;;;;4192049;28;20368;-56
2022/02/07 07:28:31;;;;;;;;;;;1.70;99.90;;;;;;4193569;28;19913;-54
2022/02/07 07:30:37;;;;;;;;;;;1.70;99.90;;;;;;4191801;28;19919;-49
2022/02/07 07:32:38;;;;;;;;;;;1.70;99.90;;;;;;4193094;28;19958;-54
2022/02/07 07:34:39;;;;;;;;;;;1.70;99.90;;;;;;4190704;28;19912;-54
2022/02/07 07:36:41;;;;;;;;;;;1.80;99.90;;;;;;4192387;28;19978;-54
2022/02/07 07:38:43;;;;;;;;;;;1.90;99.90;;;;;;4191981;28;19912;-53
2022/02/07 07:40:44;;;;;;;;;;;2.00;99.90;;;;;;4192046;28;19917;-52
2022/02/07 07:42:51;;;;;;;;;;;2.10;99.90;;;;;;4191138;28;19966;-51
2022/02/07 07:44:55;;;;;;;;;;;2.40;99.90;;;;;;4192591;28;20289;-55
2022/02/07 07:46:58;;;;;;;;;;;2.50;99.90;;;;;;4191148;28;19908;-52
2022/02/07 07:49:05;;;;;;;;;;;2.70;99.90;;;;;;4191304;28;19978;-53
2022/02/07 07:51:14;;;;;;;;;;;2.90;99.90;;;;;;4191646;28;20387;-54
2022/02/07 08:02:12;;;;;;;;;;;3.00;99.90;;;;;;4192462;28;20320;-56
2022/02/07 08:04:16;;;;;;;;;;;3.00;99.90;;;;;;4190406;28;19966;-51
2022/02/07 08:06:27;;;;;;;;;;;3.00;99.90;;;;;;4191657;28;19958;-57
2022/02/07 08:08:36;;;;;;;;;;;2.90;99.90;;;;;;4191923;28;20506;-55
2022/02/07 08:11:03;;;;;;;;;;;2.80;99.90;;;;;;4192377;28;19962;-53
2022/02/07 08:13:00;;;;;;;;;;;2.80;99.90;;;;;;4190291;28;20326;-55
2022/02/07 08:15:01;;;;;;;;;;;2.70;99.90;;;;;;4191733;28;19962;-56
2022/02/07 08:17:03;;;;;;;;;;;2.60;99.90;;;;;;4190571;28;20043;-52
2022/02/07 08:19:07;;;;;;;;;;;2.60;99.90;;;;;;4190313;28;20009;-56
2022/02/07 08:21:08;;;;;;;;;;;2.50;99.90;;;;;;4191611;28;19909;-56
2022/02/07 08:23:11;;;;;;;;;;;2.60;99.90;;;;;;4191109;28;19979;-53
2022/02/07 08:25:11;;;;;;;;;;;2.60;99.90;;;;;;4191753;28;19962;-56
2022/02/07 08:27:12;;;;;;;;;;;2.60;99.90;;;;;;4190259;28;19913;-54
2022/02/07 08:29:13;;;;;;;;;;;2.50;99.90;;;;;;4191930;28;19913;-55
2022/02/07 08:31:17;;;;;;;;;;;2.50;99.90;;;;;;4190209;28;20377;-54
2022/02/07 08:33:18;;;;;;;;;;;2.60;99.90;;;;;;4191655;28;19916;-55
2022/02/07 08:35:18;;;;;;;;;;;2.70;99.90;;;;;;4190116;28;19912;-56
2022/02/07 08:37:20;;;;;;;;;;;2.70;99.90;;;;;;4191711;28;20334;-53
2022/02/07 08:39:21;;;;;;;;;;;2.70;99.90;;;;;;4190659;28;19982;-53
2022/02/07 08:41:23;;;;;;;;;;;2.70;99.90;;;;;;4191784;28;19966;-54
2022/02/07 08:43:24;;;;;;;;;;;2.70;99.90;;;;;;4188289;28;19917;-53
2022/02/07 08:45:25;;;;;;;;;;;2.70;99.90;;;;;;4191514;28;20018;-55
2022/02/07 08:47:26;;;;;;;;;;;2.70;99.90;;;;;;4190577;28;19912;-56
2022/02/07 08:49:27;;;;;;;;;;;2.70;99.90;;;;;;4191112;28;19924;-56
2022/02/07 08:51:31;;;;;;;;;;;2.70;99.90;;;;;;4190404;28;19924;-58
2022/02/07 08:53:38;;;;;;;;;;;2.80;99.90;;;;;;4190008;28;19974;-54
2022/02/07 08:55:42;;;;;;;;;;;2.80;99.90;;;;;;4190842;28;19912;-57
2022/02/07 08:57:46;;;;;;;;;;;2.80;99.90;;;;;;4190569;28;19974;-59
2022/02/07 09:02:23;;;;;;;;;;;2.70;99.90;;;;;;4190197;28;19912;-53
2022/02/07 09:04:44;;;;;;;;;;;2.70;99.90;;;;;;4190797;28;20426;-56
2022/02/07 09:07:01;;;;;;;;;;;2.70;99.90;;;;;;4189763;28;19912;-55
2022/02/07 09:11:06;;;;;;;;;;;2.70;99.90;;;;;;4189513;28;19980;-53
2022/02/07 09:13:07;;;;;;;;;;;2.70;99.90;;;;;;4190334;28;19912;-51
2022/02/07 09:15:29;;;;;;;;;;;2.80;99.90;;;;;;4189686;28;19962;-55
2022/02/07 09:17:30;;;;;;;;;;;2.80;99.90;;;;;;4190033;28;20262;-49
2022/02/07 09:19:30;;;;;;;;;;;2.80;99.90;;;;;;4189481;28;20273;-56
2022/02/07 09:21:32;;;;;;;;;;;2.80;99.90;;;;;;4190698;28;19916;-54
2022/02/07 09:23:34;;;;;;;;;;;2.80;99.90;;;;;;4190198;28;19970;-54
2022/02/07 09:25:35;;;;;;;;;;;2.80;99.90;;;;;;4191135;28;20600;-58
2022/02/07 09:27:37;;;;;;;;;;;2.80;99.90;;;;;;4189223;28;20641;-56
2022/02/07 09:29:38;;;;;;;;;;;2.90;99.90;;;;;;4190036;28;20315;-55
2022/02/07 09:31:39;;;;;;;;;;;2.90;99.90;;;;;;4189604;28;19919;-57
2022/02/07 09:33:41;;;;;;;;;;;2.90;99.90;;;;;;4190596;28;19920;-55
2022/02/07 09:35:43;;;;;;;;;;;2.90;99.90;;;;;;4189641;28;20334;-55
2022/02/07 09:37:44;;;;;;;;;;;2.80;99.90;;;;;;4191090;28;19974;-51
2022/02/07 09:39:45;;;;;;;;;;;2.90;99.90;;;;;;4190495;28;19978;-59
2022/02/07 09:41:49;;;;;;;;;;;2.80;99.90;;;;;;4172375;28;19963;-54
2022/02/07 09:43:50;;;;;;;;;;;2.80;99.90;;;;;;4188907;28;19909;-51
2022/02/07 09:45:52;;;;;;;;;;;2.80;99.90;;;;;;4190568;28;19913;-61
2022/02/07 09:47:53;;;;;;;;;;;2.90;99.90;;;;;;4189198;28;19974;-55
2022/02/07 09:49:54;;;;;;;;;;;2.90;99.90;;;;;;4189631;28;19928;-53
2022/02/07 09:51:54;;;;;;;;;;;2.80;99.90;;;;;;4189533;28;19916;-56
2022/02/07 09:53:55;;;;;;;;;;;2.90;99.90;;;;;;4189614;28;19912;-58
2022/02/07 09:55:58;;;;;;;;;;;2.90;99.90;;;;;;4190016;28;19912;-58
2022/02/07 09:57:59;;;;;;;;;;;2.90;99.90;;;;;;4189613;28;19925;-58
2022/02/07 10:00:06;;;;;;;;;;;2.90;99.90;;;;;;4190731;28;19913;-59
2022/02/07 10:02:17;;;;;;;;;;;3.00;99.90;;;;;;4188408;28;19920;-56
2022/02/07 10:04:21;;;;;;;;;;;3.00;99.90;;;;;;4191170;28;19914;-54
2022/02/07 10:06:43;;;;;;;;;;;3.00;99.90;;;;;;4189538;28;19962;-58
2022/02/07 10:09:01;;;;;;;;;;;3.10;99.90;;;;;;4191085;28;19912;-49
2022/02/07 10:13:32;;;;;;;;;;;3.20;99.90;;;;;;4191009;28;19913;-54
2022/02/07 10:15:49;;;;;;;;;;;3.20;99.90;;;;;;4188981;28;19913;-56
2022/02/07 10:18:07;;;;;;;;;;;3.20;99.90;;;;;;4189715;28;19916;-54
2022/02/07 10:39:35;;;;;;;;;;;3.50;99.90;;;;;;4175187;28;20406;-53
2022/02/07 10:42:19;;;;;;;;;;;3.60;99.90;;;;;;4179525;28;20314;-53
2022/02/07 10:44:08;;;;;;;;;;;3.60;99.90;;;;;;4192355;28;20374;-53
2022/02/07 10:46:13;;;;;;;;;;;3.70;99.90;;;;;;4192441;28;19966;-54
2022/02/07 10:48:27;;;;;;;;;;;3.70;99.90;;;;;;4191782;28;20002;-55
2022/02/07 10:50:28;;;;;;;;;;;3.70;99.90;;;;;;4192957;28;20301;-55
2022/02/07 10:52:44;;;;;;;;;;;3.70;99.90;;;;;;4192962;28;20049;-58
2022/02/07 10:54:50;;;;;;;;;;;3.70;99.90;;;;;;4192479;28;20306;-55
2022/02/07 10:56:51;;;;;;;;;;;3.80;99.90;;;;;;4192304;28;19924;-54
2022/02/07 10:58:54;;;;;;;;;;;3.80;99.90;;;;;;4192271;28;20315;-57
2022/02/07 11:01:02;;;;;;;;;;;3.80;99.90;;;;;;4192483;28;20273;-56
2022/02/07 11:05:10;;;;;;;;;;;3.90;99.90;;;;;;4193113;28;20026;-56
2022/02/07 11:07:12;;;;;;;;;;;3.80;99.90;;;;;;4191151;28;20261;-58
2022/02/07 11:18:50;;;;;;;;;;;3.60;99.90;;;;;;4191623;28;19920;-58
2022/02/07 11:21:12;;;;;;;;;;;3.50;99.90;;;;;;4192090;28;19996;-59
2022/02/07 11:27:29;;;;;;;;;;;3.40;99.90;;;;;;4192070;28;19913;-56
2022/02/07 11:29:49;;;;;;;;;;;3.30;99.90;;;;;;4192173;28;20805;-63
2022/02/07 11:31:50;;;;;;;;;;;3.30;99.90;;;;;;4190393;28;21269;-52
2022/02/07 11:35:52;;;;;;;;;;;3.30;99.90;;;;;;4191621;28;20003;-54
2022/02/07 11:38:09;;;;;;;;;;;3.30;99.90;;;;;;4191902;28;19921;-59
2022/02/07 11:40:28;;;;;;;;;;;3.40;99.90;;;;;;4191828;28;19912;-55
2022/02/07 11:42:29;;;;;;;;;;;3.40;99.90;;;;;;4191398;28;20706;-63
2022/02/07 11:44:36;;;;;;;;;;;3.50;99.90;;;;;;4191835;28;19913;-57
2022/02/07 11:46:37;;;;;;;;;;;3.50;99.90;;;;;;4192081;28;19916;-59
2022/02/07 11:48:40;;;;;;;;;;;3.50;99.90;;;;;;4192189;28;20447;-53
2022/02/07 11:50:42;;;;;;;;;;;3.50;99.90;;;;;;4191578;28;20438;-56
2022/02/07 11:52:48;;;;;;;;;;;3.50;99.90;;;;;;4191799;28;19937;-55
2022/02/07 11:54:56;;;;;;;;;;;3.50;99.90;;;;;;4190937;28;20368;-54
2022/02/07 11:57:16;;;;;;;;;;;3.50;99.90;;;;;;4191473;28;19912;-59
2022/02/07 12:01:41;;;;;;;;;;;3.40;99.90;;;;;;4192349;28;19909;-55
2022/02/07 12:03:42;;;;;;;;;;;3.40;99.90;;;;;;4190731;28;19908;-54
2022/02/07 12:05:44;;;;;;;;;;;3.50;99.90;;;;;;4191135;28;19967;-57
2022/02/07 12:07:57;;;;;;;;;;;3.50;99.90;;;;;;4190849;28;19919;-54
2022/02/07 12:12:28;;;;;;;;;;;3.60;99.90;;;;;;4190882;28;20253;-56
2022/02/07 12:14:33;;;;;;;;;;;3.60;99.90;;;;;;4191707;28;20420;-54
2022/02/07 12:16:43;;;;;;;;;;;3.50;99.90;;;;;;4190878;28;19932;-55
2022/02/07 12:19:08;;;;;;;;;;;3.50;99.90;;;;;;4191725;28;19986;-59
2022/02/07 12:21:24;;;;;;;;;;;3.50;99.90;;;;;;4178327;28;19939;-56
2022/02/07 12:23:31;;;;;;;;;;;3.50;99.90;;;;;;4190208;28;19987;-57
2022/02/07 12:25:36;;;;;;;;;;;3.70;99.90;;;;;;4190563;28;19916;-55
2022/02/07 12:27:41;;;;;;;;;;;3.70;99.90;;;;;;4190983;28;19912;-58
2022/02/07 12:29:59;;;;;;;;;;;3.80;99.90;;;;;;4190369;28;20369;-58
2022/02/07 12:32:00;;;;;;;;;;;3.90;99.90;;;;;;4190987;28;19962;-52
2022/02/07 12:34:12;;;;;;;;;;;4.00;99.90;;;;;;4190574;28;19979;-56
2022/02/07 12:36:13;;;;;;;;;;;4.10;99.90;;;;;;4190843;28;20395;-54
2022/02/07 12:38:14;;;;;;;;;;;4.20;99.90;;;;;;4190683;28;20011;-59
2022/02/07 12:40:15;;;;;;;;;;;4.30;99.90;;;;;;4191416;28;19954;-54
2022/02/07 12:42:16;;;;;;;;;;;4.40;99.90;;;;;;4190123;28;19936;-56
2022/02/07 12:44:22;;;;;;;;;;;4.40;99.90;;;;;;4190772;28;19916;-58
2022/02/07 12:46:24;;;;;;;;;;;4.50;99.90;;;;;;4189047;28;19978;-57
2022/02/07 12:48:30;;;;;;;;;;;4.50;99.90;;;;;;4191297;28;19932;-58
2022/02/07 12:50:31;;;;;;;;;;;4.50;99.90;;;;;;4189905;28;20330;-55
2022/02/07 12:52:33;;;;;;;;;;;4.60;99.90;;;;;;4192058;28;19908;-53
2022/02/07 12:54:35;;;;;;;;;;;4.60;99.90;;;;;;4189844;28;20568;-59
2022/02/07 12:56:37;;;;;;;;;;;4.70;99.90;;;;;;4190865;28;19954;-56
2022/02/07 12:58:41;;;;;;;;;;;4.80;99.90;;;;;;4189765;28;19985;-58
2022/02/07 13:00:41;;;;;;;;;;;5.00;99.90;;;;;;4190972;28;19908;-62
2022/02/07 13:02:44;;;;;;;;;;;5.10;99.90;;;;;;4189514;28;19920;-59
2022/02/07 13:04:44;;;;;;;;;;;5.20;99.90;;;;;;4190314;28;19916;-57
2022/02/07 13:06:55;;;;;;;;;;;5.20;99.90;;;;;;4190074;28;20324;-56
2022/02/07 13:08:58;;;;;;;;;;;5.30;99.90;;;;;;4190273;28;19912;-56
2022/02/07 13:10:59;;;;;;;;;;;5.40;99.90;;;;;;4190393;28;19977;-59
2022/02/07 13:15:01;;;;;;;;;;;5.50;99.90;;;;;;4190680;28;19913;-59
2022/02/07 13:17:03;;;;;;;;;;;5.50;99.90;;;;;;4189379;28;19958;-58
2022/02/07 13:19:14;;;;;;;;;;;5.60;99.90;;;;;;4191249;28;20626;-56
2022/02/07 13:21:17;;;;;;;;;;;5.60;99.90;;;;;;4190337;28;19974;-57
2022/02/07 13:23:19;;;;;;;;;;;5.70;99.90;;;;;;4188833;28;19968;-55
2022/02/07 13:25:20;;;;;;;;;;;5.70;99.90;;;;;;4189465;28;19957;-54
2022/02/07 13:27:22;;;;;;;;;;;5.70;99.90;;;;;;4191093;28;19962;-55
2022/02/07 13:29:27;;;;;;;;;;;5.80;99.90;;;;;;4189423;28;19912;-56
2022/02/07 13:31:28;;;;;;;;;;;5.80;99.90;;;;;;4190548;28;19913;-59
2022/02/07 13:33:29;;;;;;;;;;;5.80;99.90;;;;;;4188438;28;19913;-51
2022/02/07 13:35:39;;;;;;;;;;;5.80;99.90;;;;;;4190147;28;20399;-56
2022/02/07 13:37:41;;;;;;;;;;;5.80;99.90;;;;;;4188817;28;19924;-57
2022/02/07 13:39:53;;;;;;;;;;;5.90;99.90;;;;;;4191106;28;20331;-57
2022/02/07 13:42:00;;;;;;;;;;;5.90;99.90;;;;;;4189293;28;19932;-58
2022/02/07 13:44:02;;;;;;;;;;;5.90;99.90;;;;;;4190747;28;19961;-60
2022/02/07 13:46:03;;;;;;;;;;;5.90;99.90;;;;;;4189569;28;19916;-60
2022/02/07 13:48:06;;;;;;;;;;;5.90;99.90;;;;;;4190164;28;20327;-58
2022/02/07 13:50:14;;;;;;;;;;;5.90;99.90;;;;;;4189338;28;19928;-54
2022/02/07 13:52:17;;;;;;;;;;;5.90;99.90;;;;;;4190262;28;19912;-55
2022/02/07 13:54:28;;;;;;;;;;;5.90;99.90;;;;;;4189938;28;19912;-53
2022/02/07 13:56:33;;;;;;;;;;;5.90;99.90;;;;;;4190243;28;19962;-54
2022/02/07 13:58:37;;;;;;;;;;;5.90;99.90;;;;;;4189895;28;19924;-55
2022/02/07 14:00:40;;;;;;;;;;;5.90;99.90;;;;;;4189819;28;20342;-57
2022/02/07 14:02:41;;;;;;;;;;;5.90;99.90;;;;;;4190326;28;19904;-56
2022/02/07 14:04:50;;;;;;;;;;;5.90;99.90;;;;;;4189542;28;19916;-58
2022/02/07 14:07:04;;;;;;;;;;;5.90;99.90;;;;;;4190391;28;19966;-57
2022/02/07 14:09:08;;;;;;;;;;;5.90;99.90;;;;;;4189477;28;19920;-56
2022/02/07 14:11:10;;;;;;;;;;;5.90;99.90;;;;;;4190462;28;19916;-55
2022/02/07 14:13:15;;;;;;;;;;;5.90;99.90;;;;;;4188877;28;19912;-56
2022/02/07 14:15:16;;;;;;;;;;;5.90;99.90;;;;;;4172383;28;19967;-54
2022/02/07 14:17:17;;;;;;;;;;;5.90;99.90;;;;;;4188814;28;19919;-63
2022/02/07 14:19:33;;;;;;;;;;;5.90;99.90;;;;;;4190707;28;19951;-58
2022/02/07 14:21:34;;;;;;;;;;;5.80;99.90;;;;;;4189454;28;19912;-61
2022/02/07 14:23:38;;;;;;;;;;;5.80;99.90;;;;;;4189609;28;19919;-54
2022/02/07 14:25:41;;;;;;;;;;;5.80;99.90;;;;;;4189553;28;20019;-58
2022/02/07 14:27:42;;;;;;;;;;;5.70;99.90;;;;;;4190450;28;20350;-59
2022/02/07 14:29:43;;;;;;;;;;;5.60;99.90;;;;;;4188931;28;19916;-63
2022/02/07 14:31:44;;;;;;;;;;;5.50;99.90;;;;;;4190478;28;19920;-62
2022/02/07 14:33:46;;;;;;;;;;;5.40;99.90;;;;;;4189343;28;19936;-55
2022/02/07 14:35:47;;;;;;;;;;;5.30;99.90;;;;;;4189703;28;19912;-61
2022/02/07 14:37:48;;;;;;;;;;;5.30;99.90;;;;;;4188944;28;19974;-67
2022/02/07 14:39:53;;;;;;;;;;;5.20;99.90;;;;;;4190039;28;19912;-60